Time;durP1;ratioP1;P1;durP2;ratioP2;P2;SDS_P1;SDS_P2;PMS_P1;PMS_P2;Temp;Humidity;BMP_temperature;BMP_pressure;BME280_temperature;BME280_humidity;BME280_pressure;Samples;Min_cycle;Max_cycle;Signal;HPM_P1;HPM_P2
2023/11/11 00:00:31;;;;;;;;;;;;;;;;;;5027273;27;89691;-59
2023/11/11 00:02:56;;;;;;;;;;;;;;;;;;5023470;28;89039;-59
2023/11/11 00:05:22;;;;;;;;;;;;;;;;;;5019904;28;89466;-59
2023/11/11 00:07:47;;;;;;;;;;;;;;;;;;5006592;28;90232;-59
2023/11/11 00:10:13;;;;;;;;;;;;;;;;;;5023578;28;89402;-58
2023/11/11 00:12:38;;;;;;;;;;;;;;;;;;5025687;28;91644;-59
2023/11/11 00:15:04;;;;;;;;;;;;;;;;;;5025345;28;89547;-59
2023/11/11 00:17:30;;;;;;;;;;;;;;;;;;5023201;27;90822;-59
2023/11/11 00:19:59;;;;;;;;;;;;;;;;;;5020840;28;89855;-58
2023/11/11 00:22:24;;;;;;;;;;;;;;;;;;5023215;27;90494;-59
2023/11/11 00:24:49;;;;;;;;;;;;;;;;;;5017091;28;90357;-59
2023/11/11 00:27:16;;;;;;;;;;;;;;;;;;5022493;28;89204;-59
2023/11/11 00:29:42;;;;;;;;;;;;;;;;;;5024979;28;89361;-59
2023/11/11 00:32:07;;;;;;;;;;;;;;;;;;5023736;28;89615;-59
2023/11/11 00:34:34;;;;;;;;;;;;;;;;;;5027793;28;89739;-59
2023/11/11 00:36:59;;;;;;;;;;;;;;;;;;5020849;28;90689;-59
2023/11/11 00:39:25;;;;;;;;;;;;;;;;;;5024876;28;89481;-59
2023/11/11 00:41:51;;;;;;;;;;;;;;;;;;5023416;27;89381;-59
2023/11/11 00:44:18;;;;;;;;;;;;;;;;;;5021005;28;90120;-59
2023/11/11 00:46:43;;;;;;;;;;;;;;;;;;5023135;28;90313;-58
2023/11/11 00:49:08;;;;;;;;;;;;;;;;;;5019020;27;89411;-59
2023/11/11 00:51:36;;;;;;;;;;;;;;;;;;5020779;28;89587;-58
2023/11/11 00:54:01;;;;;;;;;;;;;;;;;;5027622;28;90497;-59
2023/11/11 00:56:26;;;;;;;;;;;;;;;;;;5023113;28;89792;-59
2023/11/11 00:58:52;;;;;;;;;;;;;;;;;;5023431;28;89804;-59
2023/11/11 01:01:17;;;;;;;;;;;;;;;;;;5023464;28;89672;-59
2023/11/11 01:03:42;;;;;;;;;;;;;;;;;;5020789;28;90085;-59
2023/11/11 01:06:10;;;;;;;;;;;;;;;;;;5024359;27;90241;-59
2023/11/11 01:08:35;;;;;;;;;;;;;;;;;;5021337;28;89274;-59
2023/11/11 01:11:01;;;;;;;;;;;;;;;;;;5022727;28;89718;-60
2023/11/11 01:13:27;;;;;;;;;;;;;;;;;;5023422;28;90265;-59
2023/11/11 01:15:55;;;;;;;;;;;;;;;;;;5023935;28;89140;-58
2023/11/11 01:18:20;;;;;;;;;;;;;;;;;;5023226;27;89373;-60
2023/11/11 01:20:46;;;;;;;;;;;;;;;;;;5021875;28;89641;-59
2023/11/11 01:23:12;;;;;;;;;;;;;;;;;;5019776;28;93428;-59
2023/11/11 01:25:37;;;;;;;;;;;;;;;;;;5024021;28;89278;-59
2023/11/11 01:28:03;;;;;;;;;;;;;;;;;;5024479;27;89099;-59
2023/11/11 01:30:28;;;;;;;;;;;;;;;;;;5007349;28;92248;-59
2023/11/11 01:32:53;;;;;;;;;;;;;;;;;;5023170;28;89699;-59
2023/11/11 01:35:20;;;;;;;;;;;;;;;;;;5022307;27;89440;-59
2023/11/11 01:37:45;;;;;;;;;;;;;;;;;;5026839;28;89606;-59
2023/11/11 01:40:11;;;;;;;;;;;;;;;;;;5021595;27;89155;-59
2023/11/11 01:42:36;;;;;;;;;;;;;;;;;;5021756;27;89892;-59
2023/11/11 01:45:01;;;;;;;;;;;;;;;;;;5023932;28;89689;-59
2023/11/11 01:47:26;;;;;;;;;;;;;;;;;;5023139;27;89409;-59
2023/11/11 01:49:52;;;;;;;;;;;;;;;;;;5017554;28;89760;-59
2023/11/11 01:52:17;;;;;;;;;;;;;;;;;;5023470;28;89203;-59
2023/11/11 01:54:43;;;;;;;;;;;;;;;;;;5022679;28;89845;-59
2023/11/11 01:57:08;;;;;;;;;;;;;;;;;;5021691;28;89455;-58
2023/11/11 01:59:34;;;;;;;;;;;;;;;;;;5024975;28;89705;-59
2023/11/11 02:02:00;;;;;;;;;;;;;;;;;;5021539;28;89639;-59
2023/11/11 02:04:25;;;;;;;;;;;;;;;;;;5023453;28;89214;-59
2023/11/11 02:06:51;;;;;;;;;;;;;;;;;;5023376;28;89455;-59
2023/11/11 02:09:22;;;;;;;;;;;;;;;;;;5024123;28;89433;-58
2023/11/11 02:11:48;;;;;;;;;;;;;;;;;;5022856;28;90552;-59
2023/11/11 02:14:14;;;;;;;;;;;;;;;;;;5021590;28;89116;-59
2023/11/11 02:16:39;;;;;;;;;;;;;;;;;;5019268;28;89696;-59
2023/11/11 02:19:05;;;;;;;;;;;;;;;;;;5022492;28;89115;-59
2023/11/11 02:21:31;;;;;;;;;;;;;;;;;;5025580;28;89759;-58
2023/11/11 02:23:58;;;;;;;;;;;;;;;;;;5022590;28;89636;-59
2023/11/11 02:26:24;;;;;;;;;;;;;;;;;;5022050;28;89358;-59
2023/11/11 02:28:51;;;;;;;;;;;;;;;;;;5020153;27;91529;-58
2023/11/11 02:31:16;;;;;;;;;;;;;;;;;;5023710;28;89250;-59
2023/11/11 02:33:43;;;;;;;;;;;;;;;;;;5024429;28;89598;-59
2023/11/11 02:36:09;;;;;;;;;;;;;;;;;;5022743;27;89525;-59
2023/11/11 02:38:34;;;;;;;;;;;;;;;;;;4995378;28;90782;-59
2023/11/11 02:40:59;;;;;;;;;;;;;;;;;;5022696;28;89840;-59
2023/11/11 02:43:25;;;;;;;;;;;;;;;;;;5023373;28;89794;-59
2023/11/11 02:45:50;;;;;;;;;;;;;;;;;;5023785;28;89292;-59
2023/11/11 02:48:15;;;;;;;;;;;;;;;;;;5020591;28;90131;-59
2023/11/11 02:50:41;;;;;;;;;;;;;;;;;;5016232;28;90673;-59
2023/11/11 02:53:06;;;;;;;;;;;;;;;;;;5022629;28;89487;-59
2023/11/11 02:55:31;;;;;;;;;;;;;;;;;;5021664;27;90836;-59
2023/11/11 02:57:57;;;;;;;;;;;;;;;;;;5020794;28;89230;-59
2023/11/11 03:00:22;;;;;;;;;;;;;;;;;;5023176;28;89735;-59
2023/11/11 03:02:47;;;;;;;;;;;;;;;;;;5024702;28;89706;-59
2023/11/11 03:05:13;;;;;;;;;;;;;;;;;;5020182;28;89077;-59
2023/11/11 03:07:38;;;;;;;;;;;;;;;;;;5016497;28;89785;-59
2023/11/11 03:10:07;;;;;;;;;;;;;;;;;;5022555;28;90197;-59
2023/11/11 03:12:32;;;;;;;;;;;;;;;;;;5021901;28;89797;-59
2023/11/11 03:14:59;;;;;;;;;;;;;;;;;;5019846;28;89326;-59
2023/11/11 03:17:24;;;;;;;;;;;;;;;;;;5021915;27;89310;-59
2023/11/11 03:19:50;;;;;;;;;;;;;;;;;;5023201;28;89820;-59
2023/11/11 03:22:16;;;;;;;;;;;;;;;;;;5022679;27;90781;-58
2023/11/11 03:24:41;;;;;;;;;;;;;;;;;;5024237;28;90079;-59
2023/11/11 03:27:06;;;;;;;;;;;;;;;;;;5020648;28;89105;-59
2023/11/11 03:29:32;;;;;;;;;;;;;;;;;;5022405;28;91167;-59
2023/11/11 03:31:57;;;;;;;;;;;;;;;;;;5014295;27;89042;-59
2023/11/11 03:34:22;;;;;;;;;;;;;;;;;;5021771;28;89458;-59
2023/11/11 03:36:47;;;;;;;;;;;;;;;;;;5020859;28;90216;-59
2023/11/11 03:39:13;;;;;;;;;;;;;;;;;;5026688;28;89591;-59
2023/11/11 03:41:38;;;;;;;;;;;;;;;;;;5022590;28;90488;-59
2023/11/11 03:44:03;;;;;;;;;;;;;;;;;;5023069;28;89649;-59
2023/11/11 03:46:29;;;;;;;;;;;;;;;;;;5028128;28;91449;-58
2023/11/11 03:48:55;;;;;;;;;;;;;;;;;;5025837;28;89712;-59
2023/11/11 03:51:20;;;;;;;;;;;;;;;;;;5022032;28;89537;-58
2023/11/11 03:53:45;;;;;;;;;;;;;;;;;;5024585;28;90384;-59
2023/11/11 03:56:10;;;;;;;;;;;;;;;;;;5023338;28;89455;-59
2023/11/11 03:58:36;;;;;;;;;;;;;;;;;;5026431;28;89426;-58
2023/11/11 04:01:01;;;;;;;;;;;;;;;;;;5025930;28;90124;-58
2023/11/11 04:03:26;;;;;;;;;;;;;;;;;;5020853;28;89677;-59
2023/11/11 04:05:51;;;;;;;;;;;;;;;;;;5026374;28;89624;-59
2023/11/11 04:08:16;;;;;;;;;;;;;;;;;;5027043;28;89583;-58
2023/11/11 04:10:42;;;;;;;;;;;;;;;;;;5024425;28;89154;-59
2023/11/11 04:13:09;;;;;;;;;;;;;;;;;;5025835;28;90468;-59
2023/11/11 04:15:34;;;;;;;;;;;;;;;;;;5020423;28;90066;-59
2023/11/11 04:17:59;;;;;;;;;;;;;;;;;;5025041;28;90745;-59
2023/11/11 04:20:24;;;;;;;;;;;;;;;;;;5024549;28;89751;-59
2023/11/11 04:22:50;;;;;;;;;;;;;;;;;;5025909;28;89624;-59
2023/11/11 04:25:15;;;;;;;;;;;;;;;;;;5024528;28;89748;-59
2023/11/11 04:27:41;;;;;;;;;;;;;;;;;;5024189;28;90161;-59
2023/11/11 04:30:07;;;;;;;;;;;;;;;;;;5016881;27;89185;-59
2023/11/11 04:32:33;;;;;;;;;;;;;;;;;;5024500;28;89543;-59
2023/11/11 04:34:58;;;;;;;;;;;;;;;;;;5024559;28;89735;-59
2023/11/11 04:37:23;;;;;;;;;;;;;;;;;;5021219;28;89821;-59
2023/11/11 04:39:48;;;;;;;;;;;;;;;;;;5023801;28;90221;-59
2023/11/11 04:42:17;;;;;;;;;;;;;;;;;;5023353;28;90606;-59
2023/11/11 04:44:46;;;;;;;;;;;;;;;;;;5024752;28;89341;-59
2023/11/11 04:47:12;;;;;;;;;;;;;;;;;;5023661;28;90703;-59
2023/11/11 04:49:37;;;;;;;;;;;;;;;;;;5022481;28;89135;-59
2023/11/11 04:52:06;;;;;;;;;;;;;;;;;;5024048;28;90675;-59
2023/11/11 04:54:31;;;;;;;;;;;;;;;;;;5021561;28;90175;-59
2023/11/11 04:56:58;;;;;;;;;;;;;;;;;;5024300;27;90954;-59
2023/11/11 04:59:23;;;;;;;;;;;;;;;;;;5019104;27;89597;-58
2023/11/11 05:01:50;;;;;;;;;;;;;;;;;;5017056;27;89650;-59
2023/11/11 05:04:16;;;;;;;;;;;;;;;;;;5016835;28;88980;-59
2023/11/11 05:06:41;;;;;;;;;;;;;;;;;;5023149;27;89599;-59
2023/11/11 05:09:06;;;;;;;;;;;;;;;;;;5021159;28;90150;-59
2023/11/11 05:11:31;;;;;;;;;;;;;;;;;;5020848;28;89692;-59
2023/11/11 05:13:59;;;;;;;;;;;;;;;;;;5016459;28;90329;-59
2023/11/11 05:16:38;;;;;;;;;;;;;;;;;;5017334;27;90054;-59
2023/11/11 05:19:04;;;;;;;;;;;;;;;;;;5017134;28;91853;-59
2023/11/11 05:21:29;;;;;;;;;;;;;;;;;;5023140;28;90439;-59
2023/11/11 05:23:54;;;;;;;;;;;;;;;;;;5022459;27;90465;-59
2023/11/11 05:26:20;;;;;;;;;;;;;;;;;;5022544;27;89484;-59
2023/11/11 05:28:45;;;;;;;;;;;;;;;;;;5016635;27;89181;-59
2023/11/11 05:31:10;;;;;;;;;;;;;;;;;;5020138;28;90053;-59
2023/11/11 05:33:37;;;;;;;;;;;;;;;;;;5020490;28;89412;-59
2023/11/11 05:36:05;;;;;;;;;;;;;;;;;;5020470;27;88993;-58
2023/11/11 05:38:30;;;;;;;;;;;;;;;;;;5019815;28;90609;-59
2023/11/11 05:40:56;;;;;;;;;;;;;;;;;;5017190;27;90017;-59
2023/11/11 05:43:22;;;;;;;;;;;;;;;;;;5016669;27;89059;-59
2023/11/11 05:45:47;;;;;;;;;;;;;;;;;;5015302;27;89070;-59
2023/11/11 05:48:13;;;;;;;;;;;;;;;;;;5020961;27;89287;-59
2023/11/11 05:50:38;;;;;;;;;;;;;;;;;;5018762;27;89476;-59
2023/11/11 05:53:03;;;;;;;;;;;;;;;;;;5019232;28;89510;-59
2023/11/11 05:55:29;;;;;;;;;;;;;;;;;;5020467;28;90359;-59
2023/11/11 05:57:54;;;;;;;;;;;;;;;;;;5021363;27;89628;-59
2023/11/11 06:00:19;;;;;;;;;;;;;;;;;;5004066;28;89875;-59
2023/11/11 06:02:44;;;;;;;;;;;;;;;;;;5017359;27;90521;-59
2023/11/11 06:05:10;;;;;;;;;;;;;;;;;;5017138;27;90209;-59
2023/11/11 06:07:35;;;;;;;;;;;;;;;;;;5020240;27;89357;-59
2023/11/11 06:10:00;;;;;;;;;;;;;;;;;;5023375;27;89956;-59
2023/11/11 06:12:26;;;;;;;;;;;;;;;;;;5018110;27;90670;-59
2023/11/11 06:14:51;;;;;;;;;;;;;;;;;;5021431;27;89832;-59
2023/11/11 06:17:16;;;;;;;;;;;;;;;;;;5016696;28;89537;-59
2023/11/11 06:19:41;;;;;;;;;;;;;;;;;;5014015;27;89598;-59
2023/11/11 06:22:07;;;;;;;;;;;;;;;;;;5022522;27;89488;-59
2023/11/11 06:24:32;;;;;;;;;;;;;;;;;;5021038;28;89956;-59
2023/11/11 06:26:57;;;;;;;;;;;;;;;;;;5015036;28;89592;-59
2023/11/11 06:29:23;;;;;;;;;;;;;;;;;;5014777;28;89050;-59
2023/11/11 06:31:49;;;;;;;;;;;;;;;;;;5018602;27;91029;-59
2023/11/11 06:34:14;;;;;;;;;;;;;;;;;;5018432;27;92341;-59
2023/11/11 06:36:39;;;;;;;;;;;;;;;;;;5013340;28;90598;-59
2023/11/11 06:39:05;;;;;;;;;;;;;;;;;;5020615;27;89463;-59
2023/11/11 06:41:30;;;;;;;;;;;;;;;;;;5019876;27;89252;-58
2023/11/11 06:43:55;;;;;;;;;;;;;;;;;;5020847;27;90576;-59
2023/11/11 06:46:22;;;;;;;;;;;;;;;;;;5019677;27;90021;-59
2023/11/11 06:48:47;;;;;;;;;;;;;;;;;;5019576;28;89157;-59
2023/11/11 06:51:12;;;;;;;;;;;;;;;;;;5019994;27;89490;-59
2023/11/11 06:53:38;;;;;;;;;;;;;;;;;;5023791;28;90496;-59
2023/11/11 06:56:05;;;;;;;;;;;;;;;;;;5018218;27;89436;-59
2023/11/11 06:58:30;;;;;;;;;;;;;;;;;;5018552;27;90252;-59
2023/11/11 07:00:58;;;;;;;;;;;;;;;;;;5018628;27;89729;-59
2023/11/11 07:03:23;;;;;;;;;;;;;;;;;;5015746;27;90732;-58
2023/11/11 07:05:48;;;;;;;;;;;;;;;;;;5012305;27;89258;-59
2023/11/11 07:08:14;;;;;;;;;;;;;;;;;;5018043;27;89646;-59
2023/11/11 07:10:39;;;;;;;;;;;;;;;;;;5022106;27;90026;-58
2023/11/11 07:13:06;;;;;;;;;;;;;;;;;;5022807;27;89540;-59
2023/11/11 07:15:31;;;;;;;;;;;;;;;;;;5018214;27;89708;-59
2023/11/11 07:17:56;;;;;;;;;;;;;;;;;;5023526;27;89712;-59
2023/11/11 07:20:22;;;;;;;;;;;;;;;;;;5023251;27;89653;-59
2023/11/11 07:22:50;;;;;;;;;;;;;;;;;;5020922;27;89545;-59
2023/11/11 07:25:16;;;;;;;;;;;;;;;;;;5019402;27;89218;-59
2023/11/11 07:27:41;;;;;;;;;;;;;;;;;;5019747;28;89274;-59
2023/11/11 07:30:10;;;;;;;;;;;;;;;;;;5018313;28;89626;-59
2023/11/11 07:32:35;;;;;;;;;;;;;;;;;;5021199;28;90290;-59
2023/11/11 07:35:00;;;;;;;;;;;;;;;;;;5018199;28;89071;-59
2023/11/11 07:37:26;;;;;;;;;;;;;;;;;;5015486;28;90655;-59
2023/11/11 07:39:52;;;;;;;;;;;;;;;;;;5015980;27;90909;-59
2023/11/11 07:42:17;;;;;;;;;;;;;;;;;;5025058;28;89276;-59
2023/11/11 07:44:42;;;;;;;;;;;;;;;;;;5022211;27;89757;-59
2023/11/11 07:47:10;;;;;;;;;;;;;;;;;;5020284;27;89733;-59
2023/11/11 07:49:36;;;;;;;;;;;;;;;;;;5019300;27;90772;-59
2023/11/11 07:52:01;;;;;;;;;;;;;;;;;;5017143;27;89793;-59
2023/11/11 07:54:27;;;;;;;;;;;;;;;;;;5022677;27;90630;-62
2023/11/11 07:56:52;;;;;;;;;;;;;;;;;;5004618;28;90687;-60
2023/11/11 07:59:17;;;;;;;;;;;;;;;;;;5019773;27;89982;-59
2023/11/11 08:01:43;;;;;;;;;;;;;;;;;;5018161;27;89671;-59
2023/11/11 08:04:09;;;;;;;;;;;;;;;;;;5026761;27;90761;-59
2023/11/11 08:06:34;;;;;;;;;;;;;;;;;;5020168;27;89962;-59
2023/11/11 08:08:59;;;;;;;;;;;;;;;;;;5022295;27;90291;-59
2023/11/11 08:11:25;;;;;;;;;;;;;;;;;;5021151;27;89115;-59
2023/11/11 08:13:51;;;;;;;;;;;;;;;;;;5001486;27;90096;-59
2023/11/11 08:16:18;;;;;;;;;;;;;;;;;;5022003;27;90732;-59
2023/11/11 08:18:43;;;;;;;;;;;;;;;;;;5016434;27;90381;-59
2023/11/11 08:21:09;;;;;;;;;;;;;;;;;;5020184;27;89528;-59
2023/11/11 08:23:35;;;;;;;;;;;;;;;;;;5018664;27;91182;-59
2023/11/11 08:26:00;;;;;;;;;;;;;;;;;;5024922;27;89657;-59
2023/11/11 08:28:25;;;;;;;;;;;;;;;;;;5017692;28;89463;-59
2023/11/11 08:30:51;;;;;;;;;;;;;;;;;;5019934;27;89505;-59
2023/11/11 08:33:17;;;;;;;;;;;;;;;;;;5020211;27;89361;-59
2023/11/11 08:35:43;;;;;;;;;;;;;;;;;;5018501;27;90676;-60
2023/11/11 08:38:08;;;;;;;;;;;;;;;;;;5013389;27;90349;-59
2023/11/11 08:40:33;;;;;;;;;;;;;;;;;;5021067;27;89450;-60
2023/11/11 08:42:58;;;;;;;;;;;;;;;;;;5019067;27;89244;-61
2023/11/11 08:45:24;;;;;;;;;;;;;;;;;;5022219;27;89124;-60
2023/11/11 08:47:50;;;;;;;;;;;;;;;;;;5020868;27;90424;-59
2023/11/11 08:50:15;;;;;;;;;;;;;;;;;;5021555;27;90029;-59
2023/11/11 08:52:43;;;;;;;;;;;;;;;;;;5012158;27;90275;-59
2023/11/11 08:55:09;;;;;;;;;;;;;;;;;;5021054;27;89528;-60
2023/11/11 08:57:36;;;;;;;;;;;;;;;;;;5001961;28;92260;-62
2023/11/11 09:00:01;;;;;;;;;;;;;;;;;;5015447;28;89438;-59
2023/11/11 09:02:26;;;;;;;;;;;;;;;;;;5016845;27;89901;-59
2023/11/11 09:04:52;;;;;;;;;;;;;;;;;;5017722;28;89657;-59
2023/11/11 09:07:18;;;;;;;;;;;;;;;;;;5023538;27;89000;-60
2023/11/11 09:09:44;;;;;;;;;;;;;;;;;;5020185;27;90164;-59
2023/11/11 09:12:09;;;;;;;;;;;;;;;;;;5020459;27;90684;-59
2023/11/11 09:14:35;;;;;;;;;;;;;;;;;;5020075;28;89753;-60
2023/11/11 09:17:01;;;;;;;;;;;;;;;;;;5021821;27;90140;-59
2023/11/11 09:19:26;;;;;;;;;;;;;;;;;;5019274;28;90111;-60
2023/11/11 09:21:51;;;;;;;;;;;;;;;;;;5023089;27;90613;-59
2023/11/11 09:24:17;;;;;;;;;;;;;;;;;;5022131;28;89552;-59
2023/11/11 09:26:42;;;;;;;;;;;;;;;;;;5020478;27;89550;-59
2023/11/11 09:29:07;;;;;;;;;;;;;;;;;;5021054;27;90798;-60
2023/11/11 09:31:33;;;;;;;;;;;;;;;;;;5018970;27;89512;-59
2023/11/11 09:34:01;;;;;;;;;;;;;;;;;;5022531;28;89485;-59
2023/11/11 09:36:29;;;;;;;;;;;;;;;;;;5022602;27;90413;-60
2023/11/11 09:38:54;;;;;;;;;;;;;;;;;;5020535;27;90938;-61
2023/11/11 09:41:20;;;;;;;;;;;;;;;;;;5022366;28;89578;-59
2023/11/11 09:43:46;;;;;;;;;;;;;;;;;;5019947;27;89010;-60
2023/11/11 09:46:15;;;;;;;;;;;;;;;;;;5019887;27;90025;-60
2023/11/11 09:48:41;;;;;;;;;;;;;;;;;;5019114;27;90849;-60
2023/11/11 09:51:07;;;;;;;;;;;;;;;;;;5023450;27;91381;-59
2023/11/11 09:53:34;;;;;;;;;;;;;;;;;;5018729;27;90582;-60
2023/11/11 09:56:00;;;;;;;;;;;;;;;;;;5018429;27;90927;-60
2023/11/11 09:58:26;;;;;;;;;;;;;;;;;;5017086;28;90153;-60
2023/11/11 10:00:51;;;;;;;;;;;;;;;;;;5016438;27;90198;-59
2023/11/11 10:03:17;;;;;;;;;;;;;;;;;;5017493;27;89626;-59
2023/11/11 10:05:42;;;;;;;;;;;;;;;;;;5018235;27;89516;-59
2023/11/11 10:08:08;;;;;;;;;;;;;;;;;;5022093;27;90091;-59
2023/11/11 10:10:33;;;;;;;;;;;;;;;;;;5018460;27;89725;-59
2023/11/11 10:12:58;;;;;;;;;;;;;;;;;;5021474;27;90846;-59
2023/11/11 10:15:24;;;;;;;;;;;;;;;;;;5018727;27;89704;-59
2023/11/11 10:17:49;;;;;;;;;;;;;;;;;;5023480;28;89108;-60
2023/11/11 10:20:14;;;;;;;;;;;;;;;;;;5021696;27;90298;-59
2023/11/11 10:22:44;;;;;;;;;;;;;;;;;;5017338;28;89585;-59
2023/11/11 10:25:10;;;;;;;;;;;;;;;;;;5022534;27;90111;-59
2023/11/11 10:27:53;;;;;;;;;;;;;;;;;;4609065;27;10000235;-60
2023/11/11 10:30:20;;;;;;;;;;;;;;;;;;4126938;27;10000329;-59
2023/11/11 10:32:51;;;;;;;;;;;;;;;;;;5017128;27;90091;-59
2023/11/11 10:35:19;;;;;;;;;;;;;;;;;;5024391;27;89094;-59
2023/11/11 10:37:46;;;;;;;;;;;;;;;;;;5015574;28;90245;-59
2023/11/11 10:40:16;;;;;;;;;;;;;;;;;;5017408;28;89839;-60
2023/11/11 10:42:45;;;;;;;;;;;;;;;;;;5020394;27;89693;-59
2023/11/11 10:45:12;;;;;;;;;;;;;;;;;;5012116;27;89162;-59
2023/11/11 10:47:38;;;;;;;;;;;;;;;;;;5022318;27;89326;-59
2023/11/11 10:50:04;;;;;;;;;;;;;;;;;;5021730;27;90218;-59
2023/11/11 10:52:29;;;;;;;;;;;;;;;;;;5022397;28;90809;-59
2023/11/11 10:54:56;;;;;;;;;;;;;;;;;;5026786;27;90546;-60
2023/11/11 10:57:23;;;;;;;;;;;;;;;;;;5022122;27;91480;-62
2023/11/11 10:59:48;;;;;;;;;;;;;;;;;;5021974;27;89345;-59
2023/11/11 11:02:14;;;;;;;;;;;;;;;;;;5021960;27;90355;-62
2023/11/11 11:04:44;;;;;;;;;;;;;;;;;;5019840;27;89663;-59
2023/11/11 11:07:12;;;;;;;;;;;;;;;;;;5024935;28;89616;-61
2023/11/11 11:09:42;;;;;;;;;;;;;;;;;;5017632;27;89680;-61
2023/11/11 11:12:08;;;;;;;;;;;;;;;;;;5019062;27;90166;-60
2023/11/11 11:14:43;;;;;;;;;;;;;;;;;;5021692;27;89161;-60
2023/11/11 11:17:09;;;;;;;;;;;;;;;;;;5022992;27;89683;-60
2023/11/11 11:20:14;;;;;;;;;;;;;;;;;;5024147;27;89923;-61
2023/11/11 11:22:39;;;;;;;;;;;;;;;;;;4955955;28;90025;-60
2023/11/11 11:25:23;;;;;;;;;;;;;;;;;;5010770;27;89195;-62
2023/11/11 11:28:07;;;;;;;;;;;;;;;;;;5022084;27;90727;-59
2023/11/11 11:30:33;;;;;;;;;;;;;;;;;;5022549;28;89712;-59
2023/11/11 11:32:59;;;;;;;;;;;;;;;;;;5020768;27;90463;-60
2023/11/11 11:35:26;;;;;;;;;;;;;;;;;;5023479;27;90264;-60
2023/11/11 11:37:53;;;;;;;;;;;;;;;;;;5022042;27;89696;-60
2023/11/11 11:40:18;;;;;;;;;;;;;;;;;;5023901;27;89466;-60
2023/11/11 11:42:47;;;;;;;;;;;;;;;;;;5020975;27;89817;-59
2023/11/11 11:45:12;;;;;;;;;;;;;;;;;;5018817;27;89448;-61
2023/11/11 11:47:38;;;;;;;;;;;;;;;;;;5022911;27;89057;-62
2023/11/11 11:50:04;;;;;;;;;;;;;;;;;;5020951;27;90634;-60
2023/11/11 11:52:29;;;;;;;;;;;;;;;;;;5017734;27;90802;-61
2023/11/11 11:54:55;;;;;;;;;;;;;;;;;;5026619;27;89777;-64
2023/11/11 11:57:22;;;;;;;;;;;;;;;;;;5020246;28;89620;-61
2023/11/11 12:00:01;;;;;;;;;;;;;;;;;;5015354;27;90381;-61
2023/11/11 12:02:26;;;;;;;;;;;;;;;;;;5025776;27;90689;-62
2023/11/11 12:04:51;;;;;;;;;;;;;;;;;;5025633;27;89601;-66
2023/11/11 12:07:17;;;;;;;;;;;;;;;;;;5023667;27;89508;-62
2023/11/11 12:09:42;;;;;;;;;;;;;;;;;;5006119;28;92613;-60
2023/11/11 12:12:08;;;;;;;;;;;;;;;;;;5018954;27;89667;-60
2023/11/11 12:14:34;;;;;;;;;;;;;;;;;;5022158;27;90952;-59
2023/11/11 12:16:59;;;;;;;;;;;;;;;;;;5016949;27;89447;-60
2023/11/11 12:19:25;;;;;;;;;;;;;;;;;;5003220;28;90745;-60
2023/11/11 12:21:50;;;;;;;;;;;;;;;;;;5019658;28;89577;-60
2023/11/11 12:24:16;;;;;;;;;;;;;;;;;;5026187;27;90643;-61
2023/11/11 12:26:42;;;;;;;;;;;;;;;;;;5016856;27;89401;-61
2023/11/11 12:29:08;;;;;;;;;;;;;;;;;;5020964;27;91736;-60
2023/11/11 12:31:44;;;;;;;;;;;;;;;;;;5021713;27;89488;-61
2023/11/11 12:34:11;;;;;;;;;;;;;;;;;;5021163;27;89899;-60
2023/11/11 12:36:36;;;;;;;;;;;;;;;;;;5023377;27;90280;-60
2023/11/11 12:39:08;;;;;;;;;;;;;;;;;;5020969;27;90297;-60
2023/11/11 12:41:34;;;;;;;;;;;;;;;;;;5015801;27;89510;-61
2023/11/11 12:44:02;;;;;;;;;;;;;;;;;;5019372;27;89866;-61
2023/11/11 12:46:27;;;;;;;;;;;;;;;;;;5022391;27;91051;-63
2023/11/11 12:48:54;;;;;;;;;;;;;;;;;;5014203;27;90100;-61
2023/11/11 12:51:25;;;;;;;;;;;;;;;;;;5018164;27;90253;-60
2023/11/11 12:53:53;;;;;;;;;;;;;;;;;;5017688;27;89074;-60
2023/11/11 12:56:19;;;;;;;;;;;;;;;;;;5018498;27;90716;-60
2023/11/11 12:58:44;;;;;;;;;;;;;;;;;;5022218;28;90864;-60
2023/11/11 13:01:09;;;;;;;;;;;;;;;;;;5004172;27;90805;-61
2023/11/11 13:03:35;;;;;;;;;;;;;;;;;;5014626;28;92540;-60
2023/11/11 13:06:01;;;;;;;;;;;;;;;;;;5025296;27;89728;-60
2023/11/11 13:08:27;;;;;;;;;;;;;;;;;;5025617;27;89054;-60
2023/11/11 13:10:56;;;;;;;;;;;;;;;;;;5020097;27;90293;-60
2023/11/11 13:13:22;;;;;;;;;;;;;;;;;;5016515;27;90061;-60
2023/11/11 13:15:49;;;;;;;;;;;;;;;;;;5018626;27;89416;-60
2023/11/11 13:18:18;;;;;;;;;;;;;;;;;;5021928;27;90703;-61
2023/11/11 13:20:46;;;;;;;;;;;;;;;;;;5016878;27;89487;-60
2023/11/11 13:23:12;;;;;;;;;;;;;;;;;;5019290;27;90848;-61
2023/11/11 13:25:38;;;;;;;;;;;;;;;;;;5019291;27;91291;-60
2023/11/11 13:28:04;;;;;;;;;;;;;;;;;;5022979;27;89632;-61
2023/11/11 13:30:29;;;;;;;;;;;;;;;;;;5019312;27;90844;-61
2023/11/11 13:32:55;;;;;;;;;;;;;;;;;;5019541;28;90899;-61
2023/11/11 13:35:21;;;;;;;;;;;;;;;;;;5015961;28;90171;-61
2023/11/11 13:37:46;;;;;;;;;;;;;;;;;;5015698;27;89980;-61
2023/11/11 13:40:28;;;;;;;;;;;;;;;;;;5021760;27;89090;-61
2023/11/11 13:42:54;;;;;;;;;;;;;;;;;;5017782;28;90740;-60
2023/11/11 13:45:19;;;;;;;;;;;;;;;;;;5015432;28;90215;-60
2023/11/11 13:47:45;;;;;;;;;;;;;;;;;;5019188;28;89797;-60
2023/11/11 13:50:15;;;;;;;;;;;;;;;;;;5021799;27;89659;-61
2023/11/11 13:52:40;;;;;;;;;;;;;;;;;;5015273;27;89205;-60
2023/11/11 13:55:07;;;;;;;;;;;;;;;;;;5020170;27;89592;-61
2023/11/11 13:57:32;;;;;;;;;;;;;;;;;;5021485;27;89264;-60
2023/11/11 13:59:59;;;;;;;;;;;;;;;;;;5016562;27;91789;-60
2023/11/11 14:02:24;;;;;;;;;;;;;;;;;;5017218;27;90926;-60
2023/11/11 14:04:50;;;;;;;;;;;;;;;;;;5019151;27;91361;-60
2023/11/11 14:07:16;;;;;;;;;;;;;;;;;;5018111;28;89558;-60
2023/11/11 14:09:41;;;;;;;;;;;;;;;;;;5019874;27;90740;-61
2023/11/11 14:12:07;;;;;;;;;;;;;;;;;;5020726;27;92130;-60
2023/11/11 14:14:33;;;;;;;;;;;;;;;;;;5018130;27;90218;-60
2023/11/11 14:17:00;;;;;;;;;;;;;;;;;;5015674;27;89793;-61
2023/11/11 14:19:25;;;;;;;;;;;;;;;;;;5015492;27;90019;-61
2023/11/11 14:21:50;;;;;;;;;;;;;;;;;;5016253;27;90218;-60
2023/11/11 14:24:16;;;;;;;;;;;;;;;;;;5020587;27;89626;-60
2023/11/11 14:26:41;;;;;;;;;;;;;;;;;;5018068;28;89725;-63
2023/11/11 14:29:07;;;;;;;;;;;;;;;;;;4997761;28;92301;-60
2023/11/11 14:31:33;;;;;;;;;;;;;;;;;;5019920;28;89943;-60
2023/11/11 14:33:58;;;;;;;;;;;;;;;;;;5021087;27;90260;-60
2023/11/11 14:36:23;;;;;;;;;;;;;;;;;;5020104;27;90033;-60
2023/11/11 14:38:49;;;;;;;;;;;;;;;;;;5020510;27;89185;-60
2023/11/11 14:41:15;;;;;;;;;;;;;;;;;;5021438;28;90773;-61
2023/11/11 14:43:40;;;;;;;;;;;;;;;;;;5019676;27;91588;-65
2023/11/11 14:46:06;;;;;;;;;;;;;;;;;;5014719;27;90307;-61
2023/11/11 14:48:32;;;;;;;;;;;;;;;;;;5013826;27;89627;-61
2023/11/11 14:50:57;;;;;;;;;;;;;;;;;;5017772;27;89507;-61
2023/11/11 14:53:22;;;;;;;;;;;;;;;;;;5021246;27;89476;-61
2023/11/11 14:55:48;;;;;;;;;;;;;;;;;;5018987;27;89525;-60
2023/11/11 14:58:13;;;;;;;;;;;;;;;;;;5017888;27;89686;-61
2023/11/11 15:00:40;;;;;;;;;;;;;;;;;;5019958;27;90678;-61
2023/11/11 15:03:06;;;;;;;;;;;;;;;;;;5015374;27;90317;-61
2023/11/11 15:05:31;;;;;;;;;;;;;;;;;;5015617;27;91294;-60
2023/11/11 15:07:57;;;;;;;;;;;;;;;;;;5010735;27;90574;-62
2023/11/11 15:10:23;;;;;;;;;;;;;;;;;;5013621;27;89575;-60
2023/11/11 15:12:52;;;;;;;;;;;;;;;;;;5015416;27;90597;-60
2023/11/11 15:15:18;;;;;;;;;;;;;;;;;;5017003;27;90704;-60
2023/11/11 15:17:43;;;;;;;;;;;;;;;;;;5017145;28;89957;-60
2023/11/11 15:20:17;;;;;;;;;;;;;;;;;;5015874;27;89345;-60
2023/11/11 15:22:45;;;;;;;;;;;;;;;;;;5014912;27;90311;-60
2023/11/11 15:25:13;;;;;;;;;;;;;;;;;;5017141;27;89748;-60
2023/11/11 15:27:40;;;;;;;;;;;;;;;;;;5014800;27;90474;-60
2023/11/11 15:30:05;;;;;;;;;;;;;;;;;;5012004;27;91155;-60
2023/11/11 15:32:30;;;;;;;;;;;;;;;;;;5017236;27;89560;-60
2023/11/11 15:34:56;;;;;;;;;;;;;;;;;;5020159;27;89731;-60
2023/11/11 15:37:21;;;;;;;;;;;;;;;;;;5021460;27;90656;-60
2023/11/11 15:39:47;;;;;;;;;;;;;;;;;;5018948;27;89714;-60
2023/11/11 15:42:13;;;;;;;;;;;;;;;;;;5021643;27;90600;-60
2023/11/11 15:44:39;;;;;;;;;;;;;;;;;;5019354;27;89803;-60
2023/11/11 15:47:05;;;;;;;;;;;;;;;;;;5017294;27;90995;-61
2023/11/11 15:49:30;;;;;;;;;;;;;;;;;;5018154;28;90088;-61
2023/11/11 15:51:56;;;;;;;;;;;;;;;;;;5016783;27;89826;-63
2023/11/11 15:54:21;;;;;;;;;;;;;;;;;;5001551;27;89948;-61
2023/11/11 15:56:48;;;;;;;;;;;;;;;;;;5023556;27;89438;-61
2023/11/11 15:59:14;;;;;;;;;;;;;;;;;;5025840;27;88959;-60
2023/11/11 16:01:40;;;;;;;;;;;;;;;;;;5023097;27;91492;-61
2023/11/11 16:04:06;;;;;;;;;;;;;;;;;;5023643;27;89454;-60
2023/11/11 16:06:31;;;;;;;;;;;;;;;;;;5023023;27;90482;-60
2023/11/11 16:08:56;;;;;;;;;;;;;;;;;;5019967;27;92184;-61
2023/11/11 16:11:22;;;;;;;;;;;;;;;;;;5020015;27;90353;-61
2023/11/11 16:13:47;;;;;;;;;;;;;;;;;;5019117;27;89394;-61
2023/11/11 16:16:17;;;;;;;;;;;;;;;;;;5020357;27;89283;-61
2023/11/11 16:18:42;;;;;;;;;;;;;;;;;;5019222;27;89208;-60
2023/11/11 16:21:15;;;;;;;;;;;;;;;;;;5020970;27;90520;-62
2023/11/11 16:23:42;;;;;;;;;;;;;;;;;;5018521;27;89666;-61
2023/11/11 16:26:07;;;;;;;;;;;;;;;;;;5020210;27;89631;-64
2023/11/11 16:28:33;;;;;;;;;;;;;;;;;;5005750;28;91758;-62
2023/11/11 16:30:58;;;;;;;;;;;;;;;;;;5003647;27;90135;-61
2023/11/11 16:33:24;;;;;;;;;;;;;;;;;;5022431;27;89712;-60
2023/11/11 16:35:51;;;;;;;;;;;;;;;;;;5025491;27;90271;-61
2023/11/11 16:38:17;;;;;;;;;;;;;;;;;;5022510;27;89967;-60